createdAt,value
2023-05-08T08:59:38.520Z,99.90
2023-05-08T09:02:11.720Z,99.90
2023-05-08T09:04:39.375Z,98.00
2023-05-08T09:07:08.752Z,97.90
2023-05-08T09:09:40.990Z,96.00
2023-05-08T09:12:09.486Z,94.30
2023-05-08T09:14:36.765Z,94.10
2023-05-08T09:17:03.900Z,92.20
2023-05-08T09:19:31.778Z,92.10
2023-05-08T09:22:03.526Z,91.90
2023-05-08T09:24:56.366Z,92.30
2023-05-08T09:27:25.781Z,93.20
2023-05-08T09:30:04.743Z,88.00
2023-05-08T09:32:33.859Z,90.40
2023-05-08T09:35:01.605Z,90.10
2023-05-08T09:37:30.252Z,88.10
2023-05-08T09:40:17.332Z,88.90
2023-05-08T09:42:45.002Z,91.20
2023-05-08T09:45:25.551Z,90.20
2023-05-08T09:47:52.935Z,91.40
2023-05-08T09:50:20.133Z,92.80
2023-05-08T09:52:49.033Z,91.80
2023-05-08T09:55:16.278Z,90.10
2023-05-08T09:57:57.961Z,90.80
2023-05-08T10:00:27.320Z,89.60
2023-05-08T10:03:02.756Z,91.40
2023-05-08T10:05:33.220Z,90.10
2023-05-08T10:08:21.174Z,90.70
2023-05-08T10:10:48.528Z,87.80
2023-05-08T10:13:15.885Z,88.20
2023-05-08T10:15:44.092Z,87.00
2023-05-08T10:18:12.354Z,84.90
2023-05-08T10:20:45.319Z,80.60
2023-05-08T10:23:17.634Z,85.20
2023-05-08T10:25:54.759Z,86.00
2023-05-08T10:28:57.203Z,80.70
2023-05-08T10:31:28.240Z,81.50
2023-05-08T10:33:56.826Z,85.10
2023-05-08T10:36:24.701Z,85.20
2023-05-08T10:38:52.412Z,85.90
2023-05-08T10:41:20.713Z,82.90
2023-05-08T10:43:50.226Z,80.80
2023-05-08T10:46:22.108Z,78.80
2023-05-08T10:49:27.401Z,78.50
2023-05-08T10:52:19.477Z,81.50
2023-05-08T10:55:17.776Z,78.10
2023-05-08T10:58:03.726Z,77.30
2023-05-08T11:00:56.827Z,74.20
2023-05-08T11:03:32.101Z,79.30
2023-05-08T11:06:01.579Z,77.00
2023-05-08T11:08:30.263Z,77.80
2023-05-08T11:11:00.537Z,75.70
2023-05-08T11:13:37.761Z,77.10
2023-05-08T11:16:07.089Z,76.30
2023-05-08T11:18:48.568Z,77.40
2023-05-08T11:21:24.024Z,76.10
2023-05-08T11:23:58.304Z,75.50
2023-05-08T11:26:40.609Z,77.10
2023-05-08T11:29:17.737Z,73.40
2023-05-08T11:31:51.866Z,76.70
2023-05-08T11:34:37.206Z,77.40
2023-05-08T11:37:09.704Z,77.20
2023-05-08T11:39:37.153Z,78.20
2023-05-08T11:42:25.390Z,72.70
2023-05-08T11:45:14.448Z,72.20
2023-05-08T11:47:46.126Z,72.50
2023-05-08T11:50:14.341Z,71.00
2023-05-08T11:52:43.273Z,71.70
2023-05-08T11:55:13.072Z,73.80
2023-05-08T11:57:40.243Z,70.50
2023-05-08T12:00:12.141Z,69.10
2023-05-08T12:02:41.716Z,74.00
2023-05-08T12:05:10.814Z,70.10
2023-05-08T12:07:48.016Z,68.00
2023-05-08T12:10:17.117Z,69.00
2023-05-08T12:12:45.443Z,66.00
2023-05-08T12:15:15.181Z,67.50
2023-05-08T12:17:43.430Z,70.30
2023-05-08T12:20:11.951Z,66.70
2023-05-08T12:22:43.349Z,66.80
2023-05-08T12:25:13.086Z,69.50
2023-05-08T12:27:40.411Z,67.40
2023-05-08T12:30:09.434Z,64.40
2023-05-08T12:32:42.042Z,66.50
2023-05-08T12:35:10.576Z,64.90
2023-05-08T12:37:38.024Z,65.80
2023-05-08T12:40:06.800Z,67.30
2023-05-08T12:42:50.294Z,64.90
2023-05-08T12:45:33.976Z,65.30
2023-05-08T12:48:12.135Z,61.40
2023-05-08T12:50:41.833Z,61.70
2023-05-08T12:53:11.084Z,61.90
2023-05-08T12:55:40.327Z,64.40
2023-05-08T12:58:17.461Z,63.60
2023-05-08T13:00:45.426Z,62.70
2023-05-08T13:03:26.808Z,61.70
2023-05-08T13:05:55.738Z,61.30
2023-05-08T13:08:34.392Z,61.90
2023-05-08T13:11:02.836Z,62.00
2023-05-08T13:13:35.048Z,59.00
2023-05-08T13:16:07.844Z,61.90
2023-05-08T13:18:37.858Z,59.70
2023-05-08T13:21:05.198Z,59.00
2023-05-08T13:23:32.311Z,60.00
2023-05-08T13:25:59.376Z,60.00
2023-05-08T13:28:26.480Z,59.10
2023-05-08T13:30:53.539Z,60.10
2023-05-08T13:33:20.772Z,59.30
2023-05-08T13:35:48.793Z,58.90
2023-05-08T13:38:15.884Z,58.90
2023-05-08T13:40:42.962Z,60.70
2023-05-08T13:43:09.991Z,60.00
2023-05-08T13:45:37.369Z,58.70
2023-05-08T13:48:04.728Z,60.50
2023-05-08T13:50:31.803Z,59.40
2023-05-08T13:52:59.000Z,58.00
2023-05-08T13:55:26.304Z,59.70
2023-05-08T13:57:53.408Z,57.60
2023-05-08T14:00:22.390Z,57.50
2023-05-08T14:02:51.450Z,57.10
2023-05-08T14:05:20.521Z,57.20
2023-05-08T14:07:47.972Z,57.40
2023-05-08T14:10:17.184Z,56.80
2023-05-08T14:12:47.380Z,43.30
2023-05-08T14:15:36.528Z,32.00
2023-05-08T14:18:10.964Z,31.20
2023-05-08T14:21:53.165Z,36.20
2023-05-08T14:24:20.756Z,42.10
2023-05-08T14:26:48.529Z,44.30
2023-05-08T14:29:19.040Z,46.50
2023-05-08T14:31:46.918Z,50.00
2023-05-08T14:34:14.321Z,48.80
2023-05-08T14:36:41.413Z,50.30
2023-05-08T14:39:09.051Z,49.90
2023-05-08T14:41:37.017Z,50.00
2023-05-08T14:44:04.128Z,51.60
2023-05-08T14:46:31.362Z,51.50
2023-05-08T14:48:58.470Z,51.20
2023-05-08T14:51:25.585Z,52.20
2023-05-08T14:53:52.825Z,53.10
2023-05-08T14:56:24.857Z,53.60
2023-05-08T14:58:53.112Z,53.60
2023-05-08T15:01:20.406Z,53.90
2023-05-08T15:03:53.241Z,53.60
2023-05-08T15:06:22.282Z,52.70
2023-05-08T15:08:49.561Z,53.70
2023-05-08T15:11:16.680Z,53.10
2023-05-08T15:13:43.970Z,53.90
2023-05-08T15:16:11.143Z,54.00
2023-05-08T15:18:39.110Z,52.20
2023-05-08T15:21:06.407Z,51.80
2023-05-08T15:23:33.630Z,51.80
2023-05-08T15:26:02.029Z,54.20
2023-05-08T15:28:29.146Z,53.20
2023-05-08T15:30:56.178Z,54.60
2023-05-08T15:33:23.281Z,54.20
2023-05-08T15:35:50.480Z,54.90
2023-05-08T15:38:17.558Z,55.40
2023-05-08T15:40:44.621Z,54.80
2023-05-08T15:43:11.696Z,55.60
2023-05-08T15:45:38.771Z,53.80
2023-05-08T15:48:06.080Z,54.70
2023-05-08T15:50:33.232Z,58.30
2023-05-08T15:53:00.467Z,54.80
2023-05-08T15:55:27.725Z,55.10
2023-05-08T15:57:54.809Z,55.70
2023-05-08T16:00:24.988Z,54.50
2023-05-08T16:02:52.366Z,55.70
2023-05-08T16:05:19.494Z,53.00
2023-05-08T16:07:48.613Z,55.80
2023-05-08T16:10:15.749Z,56.00
2023-05-08T16:12:42.898Z,55.00
2023-05-08T16:15:10.328Z,55.30
2023-05-08T16:17:37.403Z,55.60
2023-05-08T16:20:05.370Z,57.90
2023-05-08T16:22:32.441Z,57.00
2023-05-08T16:24:59.483Z,57.10
2023-05-08T16:27:27.921Z,54.20
2023-05-08T16:29:55.009Z,54.90
2023-05-08T16:32:22.204Z,59.60
2023-05-08T16:34:49.310Z,64.60
2023-05-08T16:37:16.453Z,68.70
2023-05-08T16:39:43.512Z,99.90
2023-05-08T16:42:11.037Z,93.50
2023-05-08T16:44:38.142Z,81.70
2023-05-08T16:47:05.400Z,67.90
2023-05-08T16:49:32.596Z,69.10
2023-05-08T16:51:59.726Z,68.20
2023-05-08T16:54:26.862Z,72.90
2023-05-08T16:56:53.942Z,68.10
2023-05-08T16:59:21.088Z,66.60
2023-05-08T17:01:48.152Z,67.80
2023-05-08T17:04:15.258Z,72.60
2023-05-08T17:06:42.479Z,71.40
2023-05-08T17:09:09.589Z,65.70
2023-05-08T17:11:36.838Z,78.90
2023-05-08T17:14:03.956Z,75.90
2023-05-08T17:16:31.217Z,83.10
2023-05-08T17:18:59.766Z,76.90
2023-05-08T17:21:26.997Z,81.50
2023-05-08T17:23:54.118Z,69.40
2023-05-08T17:26:22.281Z,74.50
2023-05-08T17:28:49.559Z,78.60
2023-05-08T17:31:16.742Z,76.70
2023-05-08T17:33:44.245Z,80.00
2023-05-08T17:36:11.561Z,88.90
2023-05-08T17:38:43.778Z,91.30
2023-05-08T17:41:10.978Z,78.10
2023-05-08T17:43:38.318Z,74.00
2023-05-08T17:46:06.138Z,74.40
2023-05-08T17:48:34.480Z,78.80
2023-05-08T17:51:05.604Z,73.90
2023-05-08T17:53:33.256Z,74.60
2023-05-08T17:56:00.644Z,87.50
2023-05-08T17:58:27.822Z,85.30
2023-05-08T18:00:56.109Z,90.10
2023-05-08T18:03:23.506Z,84.80
2023-05-08T18:05:50.742Z,92.20
2023-05-08T18:08:17.842Z,93.30
2023-05-08T18:10:44.987Z,92.80
2023-05-08T18:13:12.160Z,90.00
2023-05-08T18:15:42.509Z,87.60
2023-05-08T18:18:09.799Z,89.80
2023-05-08T18:20:36.948Z,92.10
2023-05-08T18:23:05.747Z,90.20
2023-05-08T18:25:32.880Z,93.10
2023-05-08T18:28:00.706Z,93.00
2023-05-08T18:30:27.988Z,91.00
2023-05-08T18:32:55.231Z,97.10
2023-05-08T18:35:22.545Z,93.70
2023-05-08T18:37:49.734Z,96.10
2023-05-08T18:40:17.127Z,92.80
2023-05-08T18:42:44.563Z,93.90
2023-05-08T18:45:12.112Z,95.60
2023-05-08T18:47:39.367Z,97.60
2023-05-08T18:50:07.114Z,94.60
2023-05-08T18:52:35.039Z,94.50
2023-05-08T18:55:02.270Z,96.20
2023-05-08T18:57:29.408Z,97.70
2023-05-08T18:59:56.602Z,97.60
2023-05-08T19:02:28.181Z,93.70
2023-05-08T19:04:55.948Z,96.70
2023-05-08T19:07:23.162Z,96.00
2023-05-08T19:09:54.555Z,96.50
2023-05-08T19:12:23.346Z,96.90
2023-05-08T19:14:55.617Z,97.50
2023-05-08T19:17:23.101Z,99.10
2023-05-08T19:19:52.007Z,98.60
2023-05-08T19:22:19.251Z,97.00
2023-05-08T19:24:46.546Z,96.90
2023-05-08T19:27:13.618Z,96.50
2023-05-08T19:29:40.982Z,98.00
2023-05-08T19:32:08.132Z,99.90
2023-05-08T19:34:37.193Z,99.70
2023-05-08T19:37:04.350Z,99.90
2023-05-08T19:39:31.491Z,99.90
2023-05-08T19:41:59.432Z,99.90
2023-05-08T19:44:26.990Z,99.90
2023-05-08T19:46:54.152Z,99.90
2023-05-08T19:49:21.318Z,99.90
2023-05-08T19:51:49.620Z,99.90
2023-05-08T19:54:16.719Z,99.90
2023-05-08T19:56:43.960Z,99.90
2023-05-08T19:59:11.141Z,99.90
2023-05-08T20:01:38.537Z,99.90
2023-05-08T20:04:05.937Z,99.90
2023-05-08T20:06:33.219Z,99.90
2023-05-08T20:09:00.326Z,99.90
2023-05-08T20:11:27.467Z,99.90
2023-05-08T20:13:55.127Z,99.90
2023-05-08T20:16:22.451Z,99.90
2023-05-08T20:18:49.835Z,99.90
2023-05-08T20:21:16.926Z,99.90
2023-05-08T20:23:44.068Z,99.90
2023-05-08T20:26:11.436Z,99.90
2023-05-08T20:28:38.628Z,99.90
2023-05-08T20:31:05.905Z,99.90
2023-05-08T20:33:33.042Z,99.90
2023-05-08T20:36:00.146Z,99.90
2023-05-08T20:38:27.309Z,99.90
2023-05-08T20:40:56.983Z,99.90
2023-05-08T20:43:26.622Z,99.90
2023-05-08T20:45:53.705Z,99.90
2023-05-08T20:48:20.977Z,99.90
2023-05-08T20:50:48.969Z,99.90
2023-05-08T20:53:17.150Z,99.90
2023-05-08T20:55:45.616Z,99.90
2023-05-08T20:58:12.745Z,99.90
2023-05-08T21:00:40.114Z,99.90
2023-05-08T21:03:07.554Z,99.90
2023-05-08T21:05:34.725Z,99.90
2023-05-08T21:08:03.635Z,99.90
2023-05-08T21:10:31.598Z,99.90
2023-05-08T21:12:58.744Z,99.90
2023-05-08T21:15:25.906Z,99.90
2023-05-08T21:17:53.011Z,99.90
2023-05-08T21:20:21.457Z,99.90
2023-05-08T21:22:48.645Z,99.90
2023-05-08T21:25:16.628Z,99.90
2023-05-08T21:27:44.256Z,99.90
2023-05-08T21:30:17.665Z,99.90
2023-05-08T21:32:45.831Z,99.90
2023-05-08T21:35:13.839Z,99.90
2023-05-08T21:37:41.274Z,99.90
2023-05-08T21:40:09.641Z,99.90
2023-05-08T21:42:37.041Z,99.90
2023-05-08T21:45:04.594Z,99.90
2023-05-08T21:47:31.879Z,99.90
2023-05-08T21:49:58.941Z,99.90
2023-05-08T21:52:26.187Z,99.90
2023-05-08T21:54:53.323Z,99.90
2023-05-08T21:57:20.426Z,99.90
2023-05-08T21:59:49.278Z,99.90
2023-05-08T22:02:16.712Z,99.90
2023-05-08T22:04:44.318Z,99.90
2023-05-08T22:07:11.662Z,99.90
2023-05-08T22:09:38.885Z,99.90
2023-05-08T22:12:06.607Z,99.90
2023-05-08T22:14:33.778Z,99.90
2023-05-08T22:17:01.128Z,99.90
2023-05-08T22:19:28.487Z,99.90
2023-05-08T22:21:55.829Z,99.90
2023-05-08T22:24:23.891Z,99.90
2023-05-08T22:26:51.169Z,99.90
2023-05-08T22:29:18.305Z,99.90
2023-05-08T22:31:46.960Z,99.90
2023-05-08T22:34:14.255Z,99.90
2023-05-08T22:36:41.590Z,99.90
2023-05-08T22:39:12.447Z,99.90
2023-05-08T22:41:39.836Z,99.90
2023-05-08T22:44:07.397Z,99.90
2023-05-08T22:46:35.139Z,99.90
2023-05-08T22:49:02.913Z,99.90
2023-05-08T22:51:30.689Z,99.90
2023-05-08T22:53:57.791Z,99.90
2023-05-08T22:56:24.922Z,99.90
2023-05-08T22:58:54.745Z,99.90
2023-05-08T23:01:22.765Z,99.90
2023-05-08T23:03:53.959Z,99.90
2023-05-08T23:06:21.276Z,99.90
2023-05-08T23:08:48.531Z,99.90
2023-05-08T23:11:15.991Z,99.90
2023-05-08T23:13:43.102Z,99.90
2023-05-08T23:16:10.318Z,99.90
2023-05-08T23:18:37.580Z,99.90
2023-05-08T23:21:06.598Z,99.90
2023-05-08T23:23:34.381Z,99.90
2023-05-08T23:26:05.043Z,99.90
2023-05-08T23:28:36.121Z,99.90
2023-05-08T23:31:04.116Z,99.90
2023-05-08T23:33:31.327Z,99.90
2023-05-08T23:35:59.385Z,99.90
2023-05-08T23:38:26.851Z,99.90
2023-05-08T23:40:54.094Z,99.90
2023-05-08T23:43:21.214Z,99.90
2023-05-08T23:45:49.422Z,99.90
2023-05-08T23:48:16.905Z,99.90
2023-05-08T23:50:44.030Z,99.90
2023-05-08T23:53:11.184Z,99.90
2023-05-08T23:55:38.302Z,99.90
2023-05-08T23:58:05.597Z,99.90
